sensor_id;sensor_type;location;lat;lon;timestamp;temperature;humidity
18103;DHT22;9178;51.120;6.192;2022-08-19T00:02:01;17.50;99.90
18103;DHT22;9178;51.120;6.192;2022-08-19T00:04:29;17.50;99.90
18103;DHT22;9178;51.120;6.192;2022-08-19T00:06:57;17.50;99.90
18103;DHT22;9178;51.120;6.192;2022-08-19T00:09:26;17.50;99.90
18103;DHT22;9178;51.120;6.192;2022-08-19T00:11:53;17.40;99.90
18103;DHT22;9178;51.120;6.192;2022-08-19T00:14:22;17.40;99.90
18103;DHT22;9178;51.120;6.192;2022-08-19T00:16:50;17.40;99.90
18103;DHT22;9178;51.120;6.192;2022-08-19T00:19:19;17.30;99.90
18103;DHT22;9178;51.120;6.192;2022-08-19T00:21:47;17.30;99.90
18103;DHT22;9178;51.120;6.192;2022-08-19T00:24:14;17.30;99.90
18103;DHT22;9178;51.120;6.192;2022-08-19T00:26:42;17.30;99.90
18103;DHT22;9178;51.120;6.192;2022-08-19T00:29:11;17.30;99.90
18103;DHT22;9178;51.120;6.192;2022-08-19T00:31:39;17.20;99.90
18103;DHT22;9178;51.120;6.192;2022-08-19T00:34:07;17.20;99.90
18103;DHT22;9178;51.120;6.192;2022-08-19T00:36:34;17.20;99.90
18103;DHT22;9178;51.120;6.192;2022-08-19T00:39:03;17.20;99.90
18103;DHT22;9178;51.120;6.192;2022-08-19T00:41:30;17.10;99.90
18103;DHT22;9178;51.120;6.192;2022-08-19T00:43:58;17.10;99.90
18103;DHT22;9178;51.120;6.192;2022-08-19T00:46:25;17.00;99.90
18103;DHT22;9178;51.120;6.192;2022-08-19T00:48:54;17.00;99.90
18103;DHT22;9178;51.120;6.192;2022-08-19T00:51:21;17.00;99.90
18103;DHT22;9178;51.120;6.192;2022-08-19T00:53:48;17.00;99.90
18103;DHT22;9178;51.120;6.192;2022-08-19T00:56:15;17.00;99.90
18103;DHT22;9178;51.120;6.192;2022-08-19T00:58:42;16.90;99.90
18103;DHT22;9178;51.120;6.192;2022-08-19T01:01:10;16.90;99.90
18103;DHT22;9178;51.120;6.192;2022-08-19T01:03:37;16.90;99.90
18103;DHT22;9178;51.120;6.192;2022-08-19T01:06:06;16.90;99.90
18103;DHT22;9178;51.120;6.192;2022-08-19T01:08:33;16.80;99.90
18103;DHT22;9178;51.120;6.192;2022-08-19T01:11:00;16.80;99.90
18103;DHT22;9178;51.120;6.192;2022-08-19T01:13:30;16.80;99.90
18103;DHT22;9178;51.120;6.192;2022-08-19T01:16:00;16.80;99.90
18103;DHT22;9178;51.120;6.192;2022-08-19T01:18:29;16.80;99.90
18103;DHT22;9178;51.120;6.192;2022-08-19T01:21:00;16.70;99.90
18103;DHT22;9178;51.120;6.192;2022-08-19T01:23:30;16.70;99.90
18103;DHT22;9178;51.120;6.192;2022-08-19T01:26:10;16.70;99.90
18103;DHT22;9178;51.120;6.192;2022-08-19T01:28:38;16.70;99.90
18103;DHT22;9178;51.120;6.192;2022-08-19T01:31:08;16.70;99.90
18103;DHT22;9178;51.120;6.192;2022-08-19T01:33:37;16.70;99.90
18103;DHT22;9178;51.120;6.192;2022-08-19T01:36:06;16.60;99.90
18103;DHT22;9178;51.120;6.192;2022-08-19T01:38:39;16.60;99.90
18103;DHT22;9178;51.120;6.192;2022-08-19T01:41:06;16.60;99.90
18103;DHT22;9178;51.120;6.192;2022-08-19T01:43:34;16.60;99.90
18103;DHT22;9178;51.120;6.192;2022-08-19T01:46:02;16.60;99.90
18103;DHT22;9178;51.120;6.192;2022-08-19T01:48:33;16.50;99.90
18103;DHT22;9178;51.120;6.192;2022-08-19T01:51:01;16.50;99.90
18103;DHT22;9178;51.120;6.192;2022-08-19T01:53:28;16.50;99.90
18103;DHT22;9178;51.120;6.192;2022-08-19T01:55:57;16.50;99.90
18103;DHT22;9178;51.120;6.192;2022-08-19T01:58:26;16.50;99.90
18103;DHT22;9178;51.120;6.192;2022-08-19T02:00:54;16.50;99.90
18103;DHT22;9178;51.120;6.192;2022-08-19T02:03:22;16.50;99.90
18103;DHT22;9178;51.120;6.192;2022-08-19T02:05:54;16.50;99.90
18103;DHT22;9178;51.120;6.192;2022-08-19T02:08:21;16.40;99.90
18103;DHT22;9178;51.120;6.192;2022-08-19T02:10:48;16.40;99.90
18103;DHT22;9178;51.120;6.192;2022-08-19T02:13:17;16.40;99.90
18103;DHT22;9178;51.120;6.192;2022-08-19T02:15:44;16.40;99.90
18103;DHT22;9178;51.120;6.192;2022-08-19T02:18:11;16.40;99.90
18103;DHT22;9178;51.120;6.192;2022-08-19T02:20:38;16.40;99.90
18103;DHT22;9178;51.120;6.192;2022-08-19T02:23:07;16.40;99.90
18103;DHT22;9178;51.120;6.192;2022-08-19T02:25:34;16.40;99.90
18103;DHT22;9178;51.120;6.192;2022-08-19T02:28:01;16.40;99.90
18103;DHT22;9178;51.120;6.192;2022-08-19T02:30:29;16.30;99.90
18103;DHT22;9178;51.120;6.192;2022-08-19T02:32:56;16.30;99.90
18103;DHT22;9178;51.120;6.192;2022-08-19T02:35:23;16.30;99.90
18103;DHT22;9178;51.120;6.192;2022-08-19T02:37:51;16.30;99.90
18103;DHT22;9178;51.120;6.192;2022-08-19T02:40:35;16.30;99.90
18103;DHT22;9178;51.120;6.192;2022-08-19T02:43:02;16.30;99.90
18103;DHT22;9178;51.120;6.192;2022-08-19T02:45:33;16.30;99.90
18103;DHT22;9178;51.120;6.192;2022-08-19T02:48:00;16.30;99.90
18103;DHT22;9178;51.120;6.192;2022-08-19T02:50:27;16.30;99.90
18103;DHT22;9178;51.120;6.192;2022-08-19T02:52:54;16.30;99.90
18103;DHT22;9178;51.120;6.192;2022-08-19T02:55:21;16.30;99.90
18103;DHT22;9178;51.120;6.192;2022-08-19T02:57:47;16.30;99.90
18103;DHT22;9178;51.120;6.192;2022-08-19T03:00:15;16.30;99.90
18103;DHT22;9178;51.120;6.192;2022-08-19T03:02:43;16.30;99.90
18103;DHT22;9178;51.120;6.192;2022-08-19T03:05:11;16.30;99.90
18103;DHT22;9178;51.120;6.192;2022-08-19T03:07:38;16.30;99.90
18103;DHT22;9178;51.120;6.192;2022-08-19T03:10:06;16.30;99.90
18103;DHT22;9178;51.120;6.192;2022-08-19T03:12:35;16.30;99.90
18103;DHT22;9178;51.120;6.192;2022-08-19T03:15:04;16.30;99.90
18103;DHT22;9178;51.120;6.192;2022-08-19T03:17:31;16.30;99.90
18103;DHT22;9178;51.120;6.192;2022-08-19T03:20:00;16.30;99.90
18103;DHT22;9178;51.120;6.192;2022-08-19T03:22:27;16.30;99.90
18103;DHT22;9178;51.120;6.192;2022-08-19T03:24:55;16.30;99.90
18103;DHT22;9178;51.120;6.192;2022-08-19T03:27:22;16.30;99.90
18103;DHT22;9178;51.120;6.192;2022-08-19T03:29:48;16.30;99.90
18103;DHT22;9178;51.120;6.192;2022-08-19T03:32:16;16.30;99.90
18103;DHT22;9178;51.120;6.192;2022-08-19T03:34:42;16.30;99.90
18103;DHT22;9178;51.120;6.192;2022-08-19T03:37:11;16.30;99.90
18103;DHT22;9178;51.120;6.192;2022-08-19T03:39:39;16.20;99.90
18103;DHT22;9178;51.120;6.192;2022-08-19T03:42:07;16.30;99.90
18103;DHT22;9178;51.120;6.192;2022-08-19T03:44:34;16.20;99.90
18103;DHT22;9178;51.120;6.192;2022-08-19T03:47:04;16.20;99.90
18103;DHT22;9178;51.120;6.192;2022-08-19T03:49:32;16.20;99.90
18103;DHT22;9178;51.120;6.192;2022-08-19T03:52:01;16.20;99.90
18103;DHT22;9178;51.120;6.192;2022-08-19T03:54:29;16.20;99.90
18103;DHT22;9178;51.120;6.192;2022-08-19T03:56:56;16.20;99.90
18103;DHT22;9178;51.120;6.192;2022-08-19T03:59:26;16.20;99.90
18103;DHT22;9178;51.120;6.192;2022-08-19T04:01:54;16.20;99.90
18103;DHT22;9178;51.120;6.192;2022-08-19T04:04:21;16.20;99.90
18103;DHT22;9178;51.120;6.192;2022-08-19T04:06:48;16.20;99.90
18103;DHT22;9178;51.120;6.192;2022-08-19T04:09:17;16.20;99.90
18103;DHT22;9178;51.120;6.192;2022-08-19T04:11:48;16.20;99.90
18103;DHT22;9178;51.120;6.192;2022-08-19T04:14:17;16.20;99.90
18103;DHT22;9178;51.120;6.192;2022-08-19T04:16:45;16.20;99.90
18103;DHT22;9178;51.120;6.192;2022-08-19T04:19:13;16.20;99.90
18103;DHT22;9178;51.120;6.192;2022-08-19T04:21:40;16.20;99.90
18103;DHT22;9178;51.120;6.192;2022-08-19T04:24:10;16.20;99.90
18103;DHT22;9178;51.120;6.192;2022-08-19T04:26:37;16.20;99.90
18103;DHT22;9178;51.120;6.192;2022-08-19T04:29:07;16.20;99.90
18103;DHT22;9178;51.120;6.192;2022-08-19T04:31:34;16.20;99.90
18103;DHT22;9178;51.120;6.192;2022-08-19T04:34:04;16.20;99.90
18103;DHT22;9178;51.120;6.192;2022-08-19T04:36:33;16.30;99.90
18103;DHT22;9178;51.120;6.192;2022-08-19T04:39:02;16.20;99.90
18103;DHT22;9178;51.120;6.192;2022-08-19T04:41:29;16.30;99.90
18103;DHT22;9178;51.120;6.192;2022-08-19T04:44:15;16.20;99.90
18103;DHT22;9178;51.120;6.192;2022-08-19T04:46:43;16.30;99.90
18103;DHT22;9178;51.120;6.192;2022-08-19T04:49:11;16.30;99.90
18103;DHT22;9178;51.120;6.192;2022-08-19T04:51:40;16.30;99.90
18103;DHT22;9178;51.120;6.192;2022-08-19T04:54:08;16.30;99.90
18103;DHT22;9178;51.120;6.192;2022-08-19T04:56:34;16.30;99.90
18103;DHT22;9178;51.120;6.192;2022-08-19T04:59:01;16.30;99.90
18103;DHT22;9178;51.120;6.192;2022-08-19T05:01:32;16.30;99.90
18103;DHT22;9178;51.120;6.192;2022-08-19T05:04:01;16.40;99.90
18103;DHT22;9178;51.120;6.192;2022-08-19T05:06:30;16.40;99.90
18103;DHT22;9178;51.120;6.192;2022-08-19T05:08:59;16.40;99.90
18103;DHT22;9178;51.120;6.192;2022-08-19T05:11:28;16.50;99.90
18103;DHT22;9178;51.120;6.192;2022-08-19T05:13:56;16.50;99.90
18103;DHT22;9178;51.120;6.192;2022-08-19T05:16:24;16.50;99.90
18103;DHT22;9178;51.120;6.192;2022-08-19T05:18:54;16.60;99.90
18103;DHT22;9178;51.120;6.192;2022-08-19T05:21:40;16.60;99.90
18103;DHT22;9178;51.120;6.192;2022-08-19T05:24:25;16.70;99.90
18103;DHT22;9178;51.120;6.192;2022-08-19T05:26:53;16.80;99.90
18103;DHT22;9178;51.120;6.192;2022-08-19T05:29:23;16.80;99.90
18103;DHT22;9178;51.120;6.192;2022-08-19T05:31:51;16.80;99.90
18103;DHT22;9178;51.120;6.192;2022-08-19T05:34:21;16.90;99.90
18103;DHT22;9178;51.120;6.192;2022-08-19T05:36:52;16.90;99.90
18103;DHT22;9178;51.120;6.192;2022-08-19T05:39:24;16.90;99.90
18103;DHT22;9178;51.120;6.192;2022-08-19T05:41:53;16.90;99.90
18103;DHT22;9178;51.120;6.192;2022-08-19T05:44:23;17.00;99.90
18103;DHT22;9178;51.120;6.192;2022-08-19T05:46:50;17.00;99.90
18103;DHT22;9178;51.120;6.192;2022-08-19T05:49:21;17.00;99.90
18103;DHT22;9178;51.120;6.192;2022-08-19T05:51:48;17.00;99.90
18103;DHT22;9178;51.120;6.192;2022-08-19T05:54:15;17.10;99.90
18103;DHT22;9178;51.120;6.192;2022-08-19T05:56:42;17.10;99.90
18103;DHT22;9178;51.120;6.192;2022-08-19T05:59:10;17.10;99.90
18103;DHT22;9178;51.120;6.192;2022-08-19T06:01:38;17.10;99.90
18103;DHT22;9178;51.120;6.192;2022-08-19T06:04:06;17.20;99.90
18103;DHT22;9178;51.120;6.192;2022-08-19T06:06:34;17.20;99.90
18103;DHT22;9178;51.120;6.192;2022-08-19T06:09:02;17.20;99.90
18103;DHT22;9178;51.120;6.192;2022-08-19T06:11:34;17.20;99.90
18103;DHT22;9178;51.120;6.192;2022-08-19T06:14:04;17.20;99.90
18103;DHT22;9178;51.120;6.192;2022-08-19T06:16:34;17.20;99.90
18103;DHT22;9178;51.120;6.192;2022-08-19T06:19:03;17.30;99.90
18103;DHT22;9178;51.120;6.192;2022-08-19T06:21:34;17.40;99.90
18103;DHT22;9178;51.120;6.192;2022-08-19T06:24:03;17.40;99.90
18103;DHT22;9178;51.120;6.192;2022-08-19T06:26:30;17.50;99.90
18103;DHT22;9178;51.120;6.192;2022-08-19T06:28:57;17.50;99.90
18103;DHT22;9178;51.120;6.192;2022-08-19T06:31:26;17.60;99.90
18103;DHT22;9178;51.120;6.192;2022-08-19T06:33:53;17.60;99.90
18103;DHT22;9178;51.120;6.192;2022-08-19T06:36:22;17.70;99.90
18103;DHT22;9178;51.120;6.192;2022-08-19T06:38:58;17.80;99.90
18103;DHT22;9178;51.120;6.192;2022-08-19T06:41:26;17.80;99.90
18103;DHT22;9178;51.120;6.192;2022-08-19T06:43:53;17.90;99.90
18103;DHT22;9178;51.120;6.192;2022-08-19T06:46:20;18.00;99.90
18103;DHT22;9178;51.120;6.192;2022-08-19T06:48:48;18.00;99.90
18103;DHT22;9178;51.120;6.192;2022-08-19T06:51:16;18.20;99.90
18103;DHT22;9178;51.120;6.192;2022-08-19T06:53:44;18.30;99.90
18103;DHT22;9178;51.120;6.192;2022-08-19T06:56:14;18.30;99.90
18103;DHT22;9178;51.120;6.192;2022-08-19T06:58:41;18.40;99.90
18103;DHT22;9178;51.120;6.192;2022-08-19T07:01:08;18.50;99.90
18103;DHT22;9178;51.120;6.192;2022-08-19T07:03:37;18.60;99.90
18103;DHT22;9178;51.120;6.192;2022-08-19T07:06:05;18.60;99.90
18103;DHT22;9178;51.120;6.192;2022-08-19T07:08:33;18.70;99.90
18103;DHT22;9178;51.120;6.192;2022-08-19T07:11:02;18.70;99.90
18103;DHT22;9178;51.120;6.192;2022-08-19T07:13:33;18.80;99.90
18103;DHT22;9178;51.120;6.192;2022-08-19T07:16:03;18.90;99.90
18103;DHT22;9178;51.120;6.192;2022-08-19T07:18:30;18.90;99.90
18103;DHT22;9178;51.120;6.192;2022-08-19T07:21:03;19.00;99.90
18103;DHT22;9178;51.120;6.192;2022-08-19T07:23:30;19.00;99.90
18103;DHT22;9178;51.120;6.192;2022-08-19T07:25:57;19.10;99.90
18103;DHT22;9178;51.120;6.192;2022-08-19T07:28:24;19.20;99.90
18103;DHT22;9178;51.120;6.192;2022-08-19T07:30:52;19.40;99.90
18103;DHT22;9178;51.120;6.192;2022-08-19T07:33:19;19.40;99.90
18103;DHT22;9178;51.120;6.192;2022-08-19T07:35:46;19.60;99.90
18103;DHT22;9178;51.120;6.192;2022-08-19T07:38:15;19.70;99.90
18103;DHT22;9178;51.120;6.192;2022-08-19T07:40:43;19.80;99.90
18103;DHT22;9178;51.120;6.192;2022-08-19T07:43:11;20.10;99.90
18103;DHT22;9178;51.120;6.192;2022-08-19T07:45:38;20.30;99.90
18103;DHT22;9178;51.120;6.192;2022-08-19T07:48:06;20.40;99.90
18103;DHT22;9178;51.120;6.192;2022-08-19T07:50:33;20.50;99.90
18103;DHT22;9178;51.120;6.192;2022-08-19T07:53:00;20.60;99.90
18103;DHT22;9178;51.120;6.192;2022-08-19T07:55:26;20.70;99.90
18103;DHT22;9178;51.120;6.192;2022-08-19T07:57:54;20.80;99.90
18103;DHT22;9178;51.120;6.192;2022-08-19T08:00:22;21.00;99.90
18103;DHT22;9178;51.120;6.192;2022-08-19T08:02:49;21.30;99.90
18103;DHT22;9178;51.120;6.192;2022-08-19T08:05:17;21.40;99.90
18103;DHT22;9178;51.120;6.192;2022-08-19T08:08:02;21.60;99.90
18103;DHT22;9178;51.120;6.192;2022-08-19T08:10:46;21.80;99.90
18103;DHT22;9178;51.120;6.192;2022-08-19T08:13:13;22.00;99.90
18103;DHT22;9178;51.120;6.192;2022-08-19T08:15:40;22.20;99.90
18103;DHT22;9178;51.120;6.192;2022-08-19T08:18:07;22.30;99.90
18103;DHT22;9178;51.120;6.192;2022-08-19T08:20:35;22.40;99.90
18103;DHT22;9178;51.120;6.192;2022-08-19T08:23:02;22.40;99.90
18103;DHT22;9178;51.120;6.192;2022-08-19T08:25:46;22.40;99.90
18103;DHT22;9178;51.120;6.192;2022-08-19T08:28:13;22.50;99.90
18103;DHT22;9178;51.120;6.192;2022-08-19T08:30:41;22.60;99.90
18103;DHT22;9178;51.120;6.192;2022-08-19T08:33:09;22.60;99.90
18103;DHT22;9178;51.120;6.192;2022-08-19T08:35:38;22.60;99.90
18103;DHT22;9178;51.120;6.192;2022-08-19T08:38:07;22.50;99.90
18103;DHT22;9178;51.120;6.192;2022-08-19T08:40:39;22.50;99.90
18103;DHT22;9178;51.120;6.192;2022-08-19T08:43:13;22.50;99.90
18103;DHT22;9178;51.120;6.192;2022-08-19T08:45:49;22.50;99.90
18103;DHT22;9178;51.120;6.192;2022-08-19T08:48:20;22.50;99.90
18103;DHT22;9178;51.120;6.192;2022-08-19T08:50:51;22.50;99.90
18103;DHT22;9178;51.120;6.192;2022-08-19T08:53:20;22.50;99.90
18103;DHT22;9178;51.120;6.192;2022-08-19T08:55:48;22.60;99.90
18103;DHT22;9178;51.120;6.192;2022-08-19T08:58:24;22.60;99.90
18103;DHT22;9178;51.120;6.192;2022-08-19T09:00:52;22.60;99.90
18103;DHT22;9178;51.120;6.192;2022-08-19T09:03:21;22.70;99.90
18103;DHT22;9178;51.120;6.192;2022-08-19T09:05:57;22.70;99.90
18103;DHT22;9178;51.120;6.192;2022-08-19T09:08:33;22.60;99.90
18103;DHT22;9178;51.120;6.192;2022-08-19T09:11:06;22.60;99.90
18103;DHT22;9178;51.120;6.192;2022-08-19T09:13:44;22.60;99.90
18103;DHT22;9178;51.120;6.192;2022-08-19T09:16:16;22.70;99.90
18103;DHT22;9178;51.120;6.192;2022-08-19T09:18:50;22.70;99.90
18103;DHT22;9178;51.120;6.192;2022-08-19T09:21:20;22.80;99.90
18103;DHT22;9178;51.120;6.192;2022-08-19T09:23:48;22.90;99.90
18103;DHT22;9178;51.120;6.192;2022-08-19T09:26:16;22.90;99.90
18103;DHT22;9178;51.120;6.192;2022-08-19T09:28:46;23.00;99.90
18103;DHT22;9178;51.120;6.192;2022-08-19T09:31:16;23.10;99.90
18103;DHT22;9178;51.120;6.192;2022-08-19T09:33:44;23.10;99.90
18103;DHT22;9178;51.120;6.192;2022-08-19T09:36:13;23.10;99.90
18103;DHT22;9178;51.120;6.192;2022-08-19T09:38:41;23.20;99.90
18103;DHT22;9178;51.120;6.192;2022-08-19T09:41:13;23.20;99.90
18103;DHT22;9178;51.120;6.192;2022-08-19T09:43:41;23.30;99.90
18103;DHT22;9178;51.120;6.192;2022-08-19T09:46:09;23.40;99.90
18103;DHT22;9178;51.120;6.192;2022-08-19T09:48:36;23.40;99.90
18103;DHT22;9178;51.120;6.192;2022-08-19T09:51:04;23.50;99.90
18103;DHT22;9178;51.120;6.192;2022-08-19T09:53:33;23.60;99.90
18103;DHT22;9178;51.120;6.192;2022-08-19T09:56:02;23.60;99.90
18103;DHT22;9178;51.120;6.192;2022-08-19T09:58:29;23.70;99.90
18103;DHT22;9178;51.120;6.192;2022-08-19T10:00:57;23.80;99.90
18103;DHT22;9178;51.120;6.192;2022-08-19T10:03:25;23.90;99.90
18103;DHT22;9178;51.120;6.192;2022-08-19T10:05:52;24.00;99.90
18103;DHT22;9178;51.120;6.192;2022-08-19T10:08:21;24.10;99.90
18103;DHT22;9178;51.120;6.192;2022-08-19T10:10:49;24.20;99.90
18103;DHT22;9178;51.120;6.192;2022-08-19T10:13:19;24.40;99.90
18103;DHT22;9178;51.120;6.192;2022-08-19T10:15:51;24.50;99.90
18103;DHT22;9178;51.120;6.192;2022-08-19T10:18:20;24.80;99.90
18103;DHT22;9178;51.120;6.192;2022-08-19T10:20:48;25.10;99.90
18103;DHT22;9178;51.120;6.192;2022-08-19T10:23:16;25.30;99.90
18103;DHT22;9178;51.120;6.192;2022-08-19T10:25:43;25.20;99.90
18103;DHT22;9178;51.120;6.192;2022-08-19T10:28:10;25.40;99.90
18103;DHT22;9178;51.120;6.192;2022-08-19T10:30:40;25.90;99.90
18103;DHT22;9178;51.120;6.192;2022-08-19T10:33:07;26.50;99.90
18103;DHT22;9178;51.120;6.192;2022-08-19T10:35:34;26.70;99.90
18103;DHT22;9178;51.120;6.192;2022-08-19T10:38:02;26.50;99.90
18103;DHT22;9178;51.120;6.192;2022-08-19T10:40:29;26.70;99.90
18103;DHT22;9178;51.120;6.192;2022-08-19T10:42:56;26.90;99.90
18103;DHT22;9178;51.120;6.192;2022-08-19T10:45:23;27.10;99.90
18103;DHT22;9178;51.120;6.192;2022-08-19T10:47:53;27.40;99.90
18103;DHT22;9178;51.120;6.192;2022-08-19T10:50:19;27.50;99.90
18103;DHT22;9178;51.120;6.192;2022-08-19T10:53:06;27.80;99.90
18103;DHT22;9178;51.120;6.192;2022-08-19T10:55:34;28.50;99.90
18103;DHT22;9178;51.120;6.192;2022-08-19T10:58:20;29.00;99.90
18103;DHT22;9178;51.120;6.192;2022-08-19T11:00:56;28.90;99.90
18103;DHT22;9178;51.120;6.192;2022-08-19T11:03:25;28.40;99.90
18103;DHT22;9178;51.120;6.192;2022-08-19T11:05:59;28.30;99.90
18103;DHT22;9178;51.120;6.192;2022-08-19T11:08:26;28.20;99.90
18103;DHT22;9178;51.120;6.192;2022-08-19T11:10:54;28.40;99.90
18103;DHT22;9178;51.120;6.192;2022-08-19T11:13:23;28.70;99.90
18103;DHT22;9178;51.120;6.192;2022-08-19T11:15:57;29.00;99.90
18103;DHT22;9178;51.120;6.192;2022-08-19T11:18:25;29.00;99.90
18103;DHT22;9178;51.120;6.192;2022-08-19T11:20:52;28.80;99.90
18103;DHT22;9178;51.120;6.192;2022-08-19T11:23:19;28.50;99.90
18103;DHT22;9178;51.120;6.192;2022-08-19T11:25:46;28.50;99.90
18103;DHT22;9178;51.120;6.192;2022-08-19T11:28:13;28.30;99.90
18103;DHT22;9178;51.120;6.192;2022-08-19T11:30:40;28.10;99.90
18103;DHT22;9178;51.120;6.192;2022-08-19T11:33:07;28.10;99.90
18103;DHT22;9178;51.120;6.192;2022-08-19T11:35:39;28.30;99.90
18103;DHT22;9178;51.120;6.192;2022-08-19T11:38:07;28.40;99.90
18103;DHT22;9178;51.120;6.192;2022-08-19T11:40:34;28.70;99.90
18103;DHT22;9178;51.120;6.192;2022-08-19T11:43:00;29.10;99.90
18103;DHT22;9178;51.120;6.192;2022-08-19T11:45:27;29.20;99.90
18103;DHT22;9178;51.120;6.192;2022-08-19T11:47:55;29.60;99.90
18103;DHT22;9178;51.120;6.192;2022-08-19T11:50:24;30.00;99.90
18103;DHT22;9178;51.120;6.192;2022-08-19T11:52:55;30.20;99.90
18103;DHT22;9178;51.120;6.192;2022-08-19T11:55:22;30.20;99.20
18103;DHT22;9178;51.120;6.192;2022-08-19T11:57:49;29.90;99.50
18103;DHT22;9178;51.120;6.192;2022-08-19T12:00:16;29.70;99.70
18103;DHT22;9178;51.120;6.192;2022-08-19T12:02:42;29.60;97.10
18103;DHT22;9178;51.120;6.192;2022-08-19T12:05:10;29.10;98.10
18103;DHT22;9178;51.120;6.192;2022-08-19T12:07:37;29.00;96.60
18103;DHT22;9178;51.120;6.192;2022-08-19T12:10:05;28.70;96.40
18103;DHT22;9178;51.120;6.192;2022-08-19T12:12:32;28.50;96.30
18103;DHT22;9178;51.120;6.192;2022-08-19T12:14:59;28.20;95.60
18103;DHT22;9178;51.120;6.192;2022-08-19T12:17:26;28.00;96.40
18103;DHT22;9178;51.120;6.192;2022-08-19T12:19:54;27.80;96.90
18103;DHT22;9178;51.120;6.192;2022-08-19T12:22:21;27.70;97.00
18103;DHT22;9178;51.120;6.192;2022-08-19T12:24:48;27.70;96.90
18103;DHT22;9178;51.120;6.192;2022-08-19T12:27:18;27.50;97.10
18103;DHT22;9178;51.120;6.192;2022-08-19T12:29:45;27.30;97.40
18103;DHT22;9178;51.120;6.192;2022-08-19T12:32:11;27.10;96.30
18103;DHT22;9178;51.120;6.192;2022-08-19T12:34:38;27.10;97.60
18103;DHT22;9178;51.120;6.192;2022-08-19T12:37:06;27.00;97.60
18103;DHT22;9178;51.120;6.192;2022-08-19T12:39:35;27.00;97.90
18103;DHT22;9178;51.120;6.192;2022-08-19T12:42:05;27.00;97.20
18103;DHT22;9178;51.120;6.192;2022-08-19T12:44:34;26.90;96.70
18103;DHT22;9178;51.120;6.192;2022-08-19T12:47:00;26.80;97.00
18103;DHT22;9178;51.120;6.192;2022-08-19T12:49:28;26.70;96.30
18103;DHT22;9178;51.120;6.192;2022-08-19T12:51:54;26.70;96.70
18103;DHT22;9178;51.120;6.192;2022-08-19T12:54:23;26.60;95.60
18103;DHT22;9178;51.120;6.192;2022-08-19T12:56:50;26.60;96.60
18103;DHT22;9178;51.120;6.192;2022-08-19T12:59:17;26.60;97.10
18103;DHT22;9178;51.120;6.192;2022-08-19T13:01:45;26.70;96.70
18103;DHT22;9178;51.120;6.192;2022-08-19T13:04:12;26.90;96.20
18103;DHT22;9178;51.120;6.192;2022-08-19T13:06:39;27.10;97.40
18103;DHT22;9178;51.120;6.192;2022-08-19T13:09:06;27.20;96.40
18103;DHT22;9178;51.120;6.192;2022-08-19T13:11:32;27.30;96.30
18103;DHT22;9178;51.120;6.192;2022-08-19T13:14:00;27.50;95.80
18103;DHT22;9178;51.120;6.192;2022-08-19T13:16:28;27.80;96.10
18103;DHT22;9178;51.120;6.192;2022-08-19T13:18:57;27.90;96.90
18103;DHT22;9178;51.120;6.192;2022-08-19T13:21:25;28.20;96.90
18103;DHT22;9178;51.120;6.192;2022-08-19T13:23:52;28.70;97.40
18103;DHT22;9178;51.120;6.192;2022-08-19T13:26:20;29.10;95.20
18103;DHT22;9178;51.120;6.192;2022-08-19T13:28:47;29.70;94.50
18103;DHT22;9178;51.120;6.192;2022-08-19T13:31:46;30.40;95.40
18103;DHT22;9178;51.120;6.192;2022-08-19T13:34:33;30.60;92.60
18103;DHT22;9178;51.120;6.192;2022-08-19T13:37:01;30.30;91.90
18103;DHT22;9178;51.120;6.192;2022-08-19T13:39:29;30.10;93.80
18103;DHT22;9178;51.120;6.192;2022-08-19T13:41:58;30.30;92.30
18103;DHT22;9178;51.120;6.192;2022-08-19T13:44:25;30.60;93.00
18103;DHT22;9178;51.120;6.192;2022-08-19T13:46:55;30.70;93.20
18103;DHT22;9178;51.120;6.192;2022-08-19T13:49:27;30.40;92.10
18103;DHT22;9178;51.120;6.192;2022-08-19T13:51:57;30.20;93.40
18103;DHT22;9178;51.120;6.192;2022-08-19T13:54:24;29.80;93.80
18103;DHT22;9178;51.120;6.192;2022-08-19T13:56:52;29.50;92.80
18103;DHT22;9178;51.120;6.192;2022-08-19T13:59:19;28.90;93.60
18103;DHT22;9178;51.120;6.192;2022-08-19T14:01:46;28.70;95.00
18103;DHT22;9178;51.120;6.192;2022-08-19T14:04:13;28.60;95.40
18103;DHT22;9178;51.120;6.192;2022-08-19T14:06:40;28.50;95.20
18103;DHT22;9178;51.120;6.192;2022-08-19T14:09:08;28.50;95.70
18103;DHT22;9178;51.120;6.192;2022-08-19T14:11:35;28.50;95.30
18103;DHT22;9178;51.120;6.192;2022-08-19T14:14:03;28.30;95.90
18103;DHT22;9178;51.120;6.192;2022-08-19T14:16:30;28.00;95.90
18103;DHT22;9178;51.120;6.192;2022-08-19T14:18:57;27.90;97.50
18103;DHT22;9178;51.120;6.192;2022-08-19T14:21:24;27.80;97.10
18103;DHT22;9178;51.120;6.192;2022-08-19T14:23:52;27.90;98.30
18103;DHT22;9178;51.120;6.192;2022-08-19T14:26:21;27.90;98.40
18103;DHT22;9178;51.120;6.192;2022-08-19T14:28:49;28.30;98.40
18103;DHT22;9178;51.120;6.192;2022-08-19T14:31:16;28.70;98.50
18103;DHT22;9178;51.120;6.192;2022-08-19T14:33:45;29.20;97.10
18103;DHT22;9178;51.120;6.192;2022-08-19T14:36:12;28.90;97.00
18103;DHT22;9178;51.120;6.192;2022-08-19T14:38:39;28.80;98.60
18103;DHT22;9178;51.120;6.192;2022-08-19T14:41:13;28.70;97.70
18103;DHT22;9178;51.120;6.192;2022-08-19T14:43:44;28.60;99.10
18103;DHT22;9178;51.120;6.192;2022-08-19T14:46:13;28.60;98.10
18103;DHT22;9178;51.120;6.192;2022-08-19T14:48:41;28.60;98.30
18103;DHT22;9178;51.120;6.192;2022-08-19T14:51:09;28.30;98.30
18103;DHT22;9178;51.120;6.192;2022-08-19T14:53:36;28.10;98.00
18103;DHT22;9178;51.120;6.192;2022-08-19T14:56:08;27.90;98.10
18103;DHT22;9178;51.120;6.192;2022-08-19T14:58:35;27.80;99.20
18103;DHT22;9178;51.120;6.192;2022-08-19T15:01:03;27.80;99.90
18103;DHT22;9178;51.120;6.192;2022-08-19T15:03:30;27.80;99.90
18103;DHT22;9178;51.120;6.192;2022-08-19T15:05:59;27.70;99.90
18103;DHT22;9178;51.120;6.192;2022-08-19T15:08:28;27.70;99.90
18103;DHT22;9178;51.120;6.192;2022-08-19T15:10:56;27.50;99.90
18103;DHT22;9178;51.120;6.192;2022-08-19T15:13:25;27.40;99.90
18103;DHT22;9178;51.120;6.192;2022-08-19T15:15:55;27.40;99.90
18103;DHT22;9178;51.120;6.192;2022-08-19T15:18:24;27.30;99.90
18103;DHT22;9178;51.120;6.192;2022-08-19T15:20:51;27.10;99.90
18103;DHT22;9178;51.120;6.192;2022-08-19T15:23:19;27.00;99.90
18103;DHT22;9178;51.120;6.192;2022-08-19T15:25:47;26.90;99.90
18103;DHT22;9178;51.120;6.192;2022-08-19T15:28:14;26.90;99.90
18103;DHT22;9178;51.120;6.192;2022-08-19T15:30:43;26.80;99.90
18103;DHT22;9178;51.120;6.192;2022-08-19T15:33:11;26.70;99.90
18103;DHT22;9178;51.120;6.192;2022-08-19T15:35:41;26.60;99.90
18103;DHT22;9178;51.120;6.192;2022-08-19T15:38:08;26.50;99.90
18103;DHT22;9178;51.120;6.192;2022-08-19T15:40:36;26.40;99.90
18103;DHT22;9178;51.120;6.192;2022-08-19T15:43:03;26.40;99.90
18103;DHT22;9178;51.120;6.192;2022-08-19T15:45:30;26.50;99.90
18103;DHT22;9178;51.120;6.192;2022-08-19T15:47:58;26.50;99.90
18103;DHT22;9178;51.120;6.192;2022-08-19T15:50:25;26.50;99.90
18103;DHT22;9178;51.120;6.192;2022-08-19T15:52:55;26.40;99.90
18103;DHT22;9178;51.120;6.192;2022-08-19T15:55:25;26.30;99.90